Hakozaki Maru — JJ3662 — position and weather

sailwx.info

Track history (hours):
 
Tides and Currents Weather Stations Pressure Air Temp Water Temp Dewpoint Dewpoint Depression Visibility Wind Speed Wind Dir Waves Ship Positions

Hakozaki Maru

Last reported at 2015-Sep-03 06:06 UTC. Time now 2015-Sep-03 10:56 UTC.
Position N 34°42' E 135°14'.

Length 31 m; draft 2.5 m.

Type: Tug. MMSI: 431000322.

Date/timePositionNaut miles runAvg speedWind from/ knotsBaromVisibWave heightAir tempDewpointWater temp
2015-Sep-03 06:06N 34°42' E 135°14'1 2.2
2015-Sep-03 05:33N 34°41' E 135°15'2 1.9
2015-Sep-03 04:33N 34°41' E 135°13'0 0.4
2015-Sep-03 03:33N 34°41' E 135°12'0 0.0
2015-Sep-03 02:33N 34°41' E 135°12'0 0.0
2015-Sep-03 01:33N 34°41' E 135°12'4 4.2
2015-Sep-03 00:33N 34°42' E 135°17'1 0.5
2015-Sep-02 23:33N 34°41' E 135°17'0 0.0
2015-Sep-02 22:33N 34°41' E 135°17'1 0.8
2015-Sep-02 21:33N 34°41' E 135°17'4 4.2
2015-Sep-02 20:33N 34°41' E 135°12'3 0.2
2015-Sep-02 07:05N 34°42' E 135°16'0 0.7
2015-Sep-02 06:33N 34°42' E 135°17'2 2.2
2015-Sep-02 05:33N 34°41' E 135°19'3 3.2
2015-Sep-02 04:32N 34°41' E 135°15'2 2.2
2015-Sep-02 03:33N 34°41' E 135°12'0 0.0
2015-Sep-02 02:34N 34°41' E 135°12'0 0.0
2015-Sep-02 01:33N 34°41' E 135°12'0 0.0
2015-Sep-02 00:34N 34°41' E 135°12'0 0.0
2015-Sep-01 23:34N 34°41' E 135°12'0 0.0
2015-Sep-01 06:06N 34°41' E 135°12'0 0.0
2015-Sep-01 05:33N 34°41' E 135°12'0 0.0
2015-Sep-01 04:33N 34°41' E 135°12'0 0.0
2015-Sep-01 03:33N 34°41' E 135°12'0 0.0
2015-Sep-01 02:33N 34°41' E 135°12'0 0.0
2015-Sep-01 01:33N 34°41' E 135°12'0 0.0
2015-Sep-01 00:33N 34°41' E 135°12'0 0.0
2015-Aug-31 23:33N 34°41' E 135°12'4 4.0
2015-Aug-31 22:33N 34°42' E 135°17'2 2.0
2015-Aug-31 21:33N 34°41' E 135°15'3 2.7
2015-Aug-31 20:33N 34°41' E 135°12'0 0.0
2015-Aug-31 06:26N 34°41' E 135°12'  
2015-Aug-25 08:34N 34°42' E 135°15'0 0.1
2015-Aug-25 07:33N 34°42' E 135°16'2 2.1
2015-Aug-25 06:34N 34°40' E 135°14'0 0.3
2015-Aug-25 05:33N 34°40' E 135°15'2 2.2
2015-Aug-25 04:33N 34°41' E 135°12'0 0.0
2015-Aug-25 03:33N 34°41' E 135°12'0 0.0
2015-Aug-25 02:33N 34°41' E 135°12'2 2.4
2015-Aug-25 01:33N 34°41' E 135°15'1 1.1
2015-Aug-25 00:33N 34°40' E 135°15'1 1.1
2015-Aug-24 23:33N 34°40' E 135°14'0 0.0
2015-Aug-24 22:33N 34°40' E 135°14'1 1.4
2015-Aug-24 21:33N 34°39' E 135°15'3 3.0
2015-Aug-24 20:33N 34°41' E 135°12'  
Track history (hours):
 
Tides and Currents Weather Stations Pressure Air Temp Water Temp Dewpoint Dewpoint Depression Visibility Wind Speed Wind Dir Waves Ship Positions

Hakozaki Maru

Last reported at 2015-Sep-03 06:06 UTC. Time now 2015-Sep-03 10:56 UTC.
Position N 34°42' E 135°14'.

Length 31 m; draft 2.5 m.

Type: Tug. MMSI: 431000322.

Date/timePositionNaut miles runAvg speedWind from/ knotsBaromVisibWave heightAir tempDewpointWater temp
2015-Sep-03 06:06N 34°42' E 135°14'1 2.2
2015-Sep-03 05:33N 34°41' E 135°15'2 1.9
2015-Sep-03 04:33N 34°41' E 135°13'0 0.4
2015-Sep-03 03:33N 34°41' E 135°12'0 0.0
2015-Sep-03 02:33N 34°41' E 135°12'0 0.0
2015-Sep-03 01:33N 34°41' E 135°12'4 4.2
2015-Sep-03 00:33N 34°42' E 135°17'1 0.5
2015-Sep-02 23:33N 34°41' E 135°17'0 0.0
2015-Sep-02 22:33N 34°41' E 135°17'1 0.8
2015-Sep-02 21:33N 34°41' E 135°17'4 4.2
2015-Sep-02 20:33N 34°41' E 135°12'3 0.2
2015-Sep-02 07:05N 34°42' E 135°16'0 0.7
2015-Sep-02 06:33N 34°42' E 135°17'2 2.2
2015-Sep-02 05:33N 34°41' E 135°19'3 3.2
2015-Sep-02 04:32N 34°41' E 135°15'2 2.2
2015-Sep-02 03:33N 34°41' E 135°12'0 0.0
2015-Sep-02 02:34N 34°41' E 135°12'0 0.0
2015-Sep-02 01:33N 34°41' E 135°12'0 0.0
2015-Sep-02 00:34N 34°41' E 135°12'0 0.0
2015-Sep-01 23:34N 34°41' E 135°12'0 0.0
2015-Sep-01 06:06N 34°41' E 135°12'0 0.0
2015-Sep-01 05:33N 34°41' E 135°12'0 0.0
2015-Sep-01 04:33N 34°41' E 135°12'0 0.0
2015-Sep-01 03:33N 34°41' E 135°12'0 0.0
2015-Sep-01 02:33N 34°41' E 135°12'0 0.0
2015-Sep-01 01:33N 34°41' E 135°12'0 0.0
2015-Sep-01 00:33N 34°41' E 135°12'0 0.0
2015-Aug-31 23:33N 34°41' E 135°12'4 4.0
2015-Aug-31 22:33N 34°42' E 135°17'2 2.0
2015-Aug-31 21:33N 34°41' E 135°15'3 2.7
2015-Aug-31 20:33N 34°41' E 135°12'0 0.0
2015-Aug-31 06:26N 34°41' E 135°12'  
2015-Aug-25 08:34N 34°42' E 135°15'0 0.1
2015-Aug-25 07:33N 34°42' E 135°16'2 2.1
2015-Aug-25 06:34N 34°40' E 135°14'0 0.3
2015-Aug-25 05:33N 34°40' E 135°15'2 2.2
2015-Aug-25 04:33N 34°41' E 135°12'0 0.0
2015-Aug-25 03:33N 34°41' E 135°12'0 0.0
2015-Aug-25 02:33N 34°41' E 135°12'2 2.4
2015-Aug-25 01:33N 34°41' E 135°15'1 1.1
2015-Aug-25 00:33N 34°40' E 135°15'1 1.1
2015-Aug-24 23:33N 34°40' E 135°14'0 0.0
2015-Aug-24 22:33N 34°40' E 135°14'1 1.4
2015-Aug-24 21:33N 34°39' E 135°15'3 3.0
2015-Aug-24 20:33N 34°41' E 135°12'  

Dump ship's entire track history